createdAt,value
2022-10-28T00:01:12.242Z,63.30
2022-10-28T00:03:51.021Z,64.20
2022-10-28T00:06:21.650Z,61.70
2022-10-28T00:08:49.729Z,62.40
2022-10-28T00:11:26.390Z,62.40
2022-10-28T00:13:55.989Z,59.70
2022-10-28T00:16:25.815Z,61.20
2022-10-28T00:18:54.467Z,63.30
2022-10-28T00:21:26.059Z,62.60
2022-10-28T00:23:53.869Z,57.70
2022-10-28T00:26:24.057Z,61.60
2022-10-28T00:28:57.045Z,57.60
2022-10-28T00:31:26.573Z,62.70
2022-10-28T00:33:54.575Z,61.70
2022-10-28T00:36:24.705Z,65.30
2022-10-28T00:38:53.847Z,63.60
2022-10-28T00:41:27.140Z,69.90
2022-10-28T00:44:00.561Z,66.10
2022-10-28T00:46:39.694Z,63.40
2022-10-28T00:49:17.324Z,61.30
2022-10-28T00:51:46.989Z,62.40
2022-10-28T00:54:16.506Z,61.50
2022-10-28T00:56:46.264Z,58.40
2022-10-28T00:59:20.043Z,61.40
2022-10-28T01:01:47.800Z,56.30
2022-10-28T01:04:16.521Z,54.20
2022-10-28T01:06:44.666Z,64.80
2022-10-28T01:09:12.339Z,65.50
2022-10-28T01:11:42.830Z,62.80
2022-10-28T01:14:21.964Z,56.30
2022-10-28T01:17:03.181Z,60.70
2022-10-28T01:19:52.922Z,59.00
2022-10-28T01:22:29.010Z,55.80
2022-10-28T01:25:24.764Z,56.90
2022-10-28T01:28:30.428Z,57.90
2022-10-28T01:31:09.935Z,81.80
2022-10-28T01:33:50.893Z,58.00
2022-10-28T01:36:27.981Z,52.60
2022-10-28T01:39:12.487Z,52.60
2022-10-28T01:41:51.046Z,47.30
2022-10-28T01:44:25.048Z,49.40
2022-10-28T01:47:08.695Z,53.40
2022-10-28T01:50:02.621Z,51.90
2022-10-28T01:52:31.856Z,57.90
2022-10-28T01:55:06.781Z,56.30
2022-10-28T01:57:36.849Z,58.70
2022-10-28T02:00:05.399Z,56.70
2022-10-28T02:02:40.647Z,55.10
2022-10-28T02:05:39.469Z,54.70
2022-10-28T02:08:20.352Z,55.60
2022-10-28T02:11:04.255Z,58.60
2022-10-28T02:13:46.416Z,58.00
2022-10-28T02:16:19.833Z,56.50
2022-10-28T02:19:00.106Z,56.10
2022-10-28T02:21:33.733Z,57.20
2022-10-28T02:24:09.858Z,57.70
2022-10-28T02:26:41.571Z,56.60
2022-10-28T02:29:19.696Z,58.90
2022-10-28T02:31:53.813Z,58.70
2022-10-28T02:34:36.812Z,57.90
2022-10-28T02:37:10.933Z,61.20
2022-10-28T02:39:41.913Z,62.40
2022-10-28T02:42:17.353Z,68.70
2022-10-28T02:44:49.119Z,74.20
2022-10-28T02:47:20.319Z,80.10
2022-10-28T02:49:52.187Z,95.40
2022-10-28T02:52:20.846Z,111.00
2022-10-28T02:54:57.019Z,111.00
2022-10-28T02:57:27.077Z,110.00
2022-10-28T02:59:57.721Z,114.00
2022-10-28T03:02:26.291Z,117.10
2022-10-28T03:04:54.140Z,106.80
2022-10-28T03:07:21.703Z,106.40
2022-10-28T03:09:49.479Z,98.80
2022-10-28T03:12:17.392Z,99.90
2022-10-28T03:14:44.970Z,89.90
2022-10-28T03:17:12.621Z,89.40
2022-10-28T03:19:40.165Z,87.20
2022-10-28T03:22:07.776Z,84.80
2022-10-28T03:24:35.315Z,82.70
2022-10-28T03:27:03.773Z,80.80
2022-10-28T03:29:31.509Z,79.40
2022-10-28T03:31:59.045Z,78.30
2022-10-28T03:34:26.558Z,76.70
2022-10-28T03:36:54.175Z,73.30
2022-10-28T03:39:21.728Z,71.80
2022-10-28T03:41:49.295Z,67.50
2022-10-28T03:44:16.821Z,66.30
2022-10-28T03:46:44.397Z,66.30
2022-10-28T03:49:11.905Z,64.90
2022-10-28T03:51:39.413Z,65.30
2022-10-28T03:54:07.018Z,65.60
2022-10-28T03:56:34.574Z,63.80
2022-10-28T03:59:02.107Z,64.60
2022-10-28T04:01:29.723Z,65.60
2022-10-28T04:03:57.384Z,64.70
2022-10-28T04:06:25.137Z,62.80
2022-10-28T04:08:52.653Z,64.00
2022-10-28T04:11:20.157Z,65.90
2022-10-28T04:13:47.872Z,64.10
2022-10-28T04:16:15.362Z,63.70
2022-10-28T04:18:42.855Z,64.50
2022-10-28T04:21:10.567Z,66.70
2022-10-28T04:23:38.126Z,63.70
2022-10-28T04:26:05.818Z,65.50
2022-10-28T04:28:33.425Z,66.60
2022-10-28T04:31:02.736Z,66.90
2022-10-28T04:33:31.047Z,67.00
2022-10-28T04:35:58.645Z,68.00
2022-10-28T04:38:26.251Z,66.90
2022-10-28T04:40:53.802Z,65.70
2022-10-28T04:43:21.388Z,67.60
2022-10-28T04:45:48.941Z,67.30
2022-10-28T04:48:16.469Z,68.90
2022-10-28T04:50:44.522Z,69.10
2022-10-28T04:53:13.133Z,71.00
2022-10-28T04:55:40.659Z,70.30
2022-10-28T04:58:09.624Z,70.10
2022-10-28T05:00:37.122Z,71.20
2022-10-28T05:03:04.647Z,70.90
2022-10-28T05:05:32.482Z,72.00
2022-10-28T05:08:00.069Z,74.20
2022-10-28T05:10:27.812Z,72.60
2022-10-28T05:12:55.462Z,73.90
2022-10-28T05:15:23.104Z,72.50
2022-10-28T05:17:50.884Z,72.90
2022-10-28T05:20:19.921Z,72.80
2022-10-28T05:22:49.097Z,71.90
2022-10-28T05:25:17.667Z,71.50
2022-10-28T05:27:45.661Z,73.70
2022-10-28T05:30:13.940Z,72.30
2022-10-28T05:32:41.845Z,73.10
2022-10-28T05:35:09.927Z,71.10
2022-10-28T05:37:38.179Z,71.00
2022-10-28T05:40:06.437Z,72.10
2022-10-28T05:42:33.931Z,71.80
2022-10-28T05:45:01.451Z,73.80
2022-10-28T05:47:28.954Z,72.20
2022-10-28T05:49:56.479Z,71.70
2022-10-28T05:52:24.042Z,71.70
2022-10-28T05:54:51.574Z,73.50
2022-10-28T05:57:19.106Z,71.10
2022-10-28T05:59:46.865Z,69.50
2022-10-28T06:02:15.061Z,70.70
2022-10-28T06:04:42.721Z,70.40
2022-10-28T06:07:10.268Z,71.30
2022-10-28T06:09:38.189Z,70.60
2022-10-28T06:12:05.233Z,69.10
2022-10-28T06:14:33.213Z,68.80
2022-10-28T06:17:02.128Z,68.10
2022-10-28T06:19:29.699Z,67.90
2022-10-28T06:21:57.221Z,66.40
2022-10-28T06:24:24.912Z,67.30
2022-10-28T06:26:52.431Z,65.30
2022-10-28T06:29:20.043Z,63.60
2022-10-28T06:31:47.641Z,64.40
2022-10-28T06:34:15.428Z,65.80
2022-10-28T06:36:42.969Z,64.40
2022-10-28T06:39:10.729Z,64.50
2022-10-28T06:41:38.238Z,64.40
2022-10-28T06:44:05.756Z,62.40
2022-10-28T06:46:35.358Z,65.30
2022-10-28T06:49:03.716Z,64.80
2022-10-28T06:51:32.038Z,64.50
2022-10-28T06:54:00.281Z,62.10
2022-10-28T06:56:27.933Z,63.50
2022-10-28T06:58:55.554Z,60.60
2022-10-28T07:01:29.367Z,60.20
2022-10-28T07:03:59.048Z,59.10
2022-10-28T07:06:26.587Z,58.10
2022-10-28T07:08:54.127Z,56.60
2022-10-28T07:11:21.691Z,61.20
2022-10-28T07:13:49.215Z,57.70
2022-10-28T07:16:16.738Z,57.20
2022-10-28T07:18:44.303Z,56.10
2022-10-28T07:21:12.282Z,55.90
2022-10-28T07:23:39.917Z,53.30
2022-10-28T07:26:07.525Z,54.60
2022-10-28T07:28:35.155Z,52.60
2022-10-28T07:31:03.260Z,52.90
2022-10-28T07:33:31.316Z,53.70
2022-10-28T07:35:59.177Z,51.60
2022-10-28T07:38:26.769Z,50.50
2022-10-28T07:40:54.330Z,49.00
2022-10-28T07:43:21.962Z,49.20
2022-10-28T07:45:55.889Z,47.10
2022-10-28T07:48:23.535Z,46.40
2022-10-28T07:50:51.274Z,44.40
2022-10-28T07:53:18.800Z,43.90
2022-10-28T07:55:56.180Z,43.80
2022-10-28T07:58:23.846Z,43.60
2022-10-28T08:00:51.897Z,43.00
2022-10-28T08:03:19.842Z,42.10
2022-10-28T08:05:47.886Z,43.80
2022-10-28T08:08:15.405Z,43.80
2022-10-28T08:10:43.144Z,44.70
2022-10-28T08:13:11.371Z,42.10
2022-10-28T08:15:38.940Z,43.90
2022-10-28T08:18:06.430Z,45.70
2022-10-28T08:20:33.965Z,45.80
2022-10-28T08:23:03.971Z,47.10
2022-10-28T08:25:34.633Z,47.00
2022-10-28T08:28:02.113Z,46.20
2022-10-28T08:30:36.554Z,47.60
2022-10-28T08:33:13.526Z,47.00
2022-10-28T08:35:42.255Z,46.90
2022-10-28T08:38:09.863Z,46.30
2022-10-28T08:40:54.231Z,48.50
2022-10-28T08:43:40.357Z,47.10
2022-10-28T08:46:24.775Z,46.20
2022-10-28T08:48:52.343Z,45.90
2022-10-28T08:51:30.161Z,44.30
2022-10-28T08:54:01.196Z,46.60
2022-10-28T08:56:33.718Z,46.40
2022-10-28T08:59:03.805Z,44.40
2022-10-28T09:01:44.442Z,41.10
2022-10-28T09:04:35.596Z,40.40
2022-10-28T09:07:03.986Z,40.60
2022-10-28T09:09:32.419Z,39.60
2022-10-28T09:12:23.255Z,39.80
2022-10-28T09:15:22.179Z,38.20
2022-10-28T09:17:57.138Z,36.40
2022-10-28T09:20:44.719Z,36.50
2022-10-28T09:23:22.156Z,36.10
2022-10-28T09:25:54.627Z,34.00
2022-10-28T09:28:31.186Z,32.40
2022-10-28T09:31:18.015Z,31.10
2022-10-28T09:34:01.447Z,30.20
2022-10-28T09:36:33.283Z,30.30
2022-10-28T09:39:01.945Z,29.80
2022-10-28T09:41:33.937Z,28.90
2022-10-28T09:44:08.719Z,26.90
2022-10-28T09:46:37.719Z,26.80
2022-10-28T09:49:11.786Z,26.70
2022-10-28T09:51:46.697Z,25.20
2022-10-28T09:54:14.985Z,24.10
2022-10-28T09:56:42.537Z,22.60
2022-10-28T09:59:13.858Z,24.30
2022-10-28T10:01:43.174Z,24.50
2022-10-28T10:04:18.960Z,24.10
2022-10-28T10:06:50.100Z,24.50
2022-10-28T10:09:24.852Z,23.90
2022-10-28T10:11:55.449Z,23.40
2022-10-28T10:14:28.722Z,23.40
2022-10-28T10:17:04.381Z,21.90
2022-10-28T10:19:57.930Z,21.40
2022-10-28T10:22:37.305Z,20.40
2022-10-28T10:25:23.566Z,19.80
2022-10-28T10:28:03.810Z,19.70
2022-10-28T10:30:33.992Z,20.50
2022-10-28T10:33:02.488Z,20.30
2022-10-28T10:35:39.136Z,20.20
2022-10-28T10:38:06.942Z,18.50
2022-10-28T10:40:50.325Z,18.30
2022-10-28T10:43:18.094Z,17.60
2022-10-28T10:45:58.990Z,17.60
2022-10-28T10:48:28.004Z,16.70
2022-10-28T10:50:56.033Z,15.90
2022-10-28T10:53:26.519Z,17.50
2022-10-28T10:56:02.273Z,18.70
2022-10-28T10:58:35.206Z,18.90
2022-10-28T11:01:05.183Z,17.70
2022-10-28T11:03:47.376Z,17.20
2022-10-28T11:06:23.912Z,17.20
2022-10-28T11:09:05.259Z,18.10
2022-10-28T11:11:40.413Z,19.20
2022-10-28T11:14:10.727Z,17.80
2022-10-28T11:16:58.629Z,18.10
2022-10-28T11:19:35.600Z,16.50
2022-10-28T11:22:33.020Z,16.10
2022-10-28T11:25:38.316Z,16.40
2022-10-28T11:28:40.022Z,15.10
2022-10-28T11:31:26.340Z,16.70
2022-10-28T11:34:31.236Z,14.80
2022-10-28T11:37:10.180Z,15.20
2022-10-28T11:40:06.667Z,14.40
2022-10-28T11:42:42.026Z,13.40
2022-10-28T11:45:24.959Z,15.20
2022-10-28T11:48:29.945Z,13.90
2022-10-28T11:51:10.070Z,14.70
2022-10-28T11:54:03.629Z,13.30
2022-10-28T11:56:42.244Z,12.80
2022-10-28T11:59:43.819Z,10.50
2022-10-28T12:02:33.640Z,9.60
2022-10-28T12:05:23.665Z,12.10
2022-10-28T12:08:01.320Z,10.90
2022-10-28T12:10:41.328Z,11.50
2022-10-28T12:13:14.004Z,11.20
2022-10-28T12:15:55.859Z,10.60
2022-10-28T12:18:33.682Z,11.00
2022-10-28T12:21:10.419Z,10.20
2022-10-28T12:23:39.195Z,10.00
2022-10-28T12:26:09.679Z,10.50
2022-10-28T12:28:42.142Z,10.50
2022-10-28T12:31:19.639Z,10.40
2022-10-28T12:33:50.044Z,11.30
2022-10-28T12:36:37.865Z,10.50
2022-10-28T12:39:18.659Z,9.40
2022-10-28T12:42:00.919Z,11.80
2022-10-28T12:44:29.561Z,10.70
2022-10-28T12:47:14.824Z,11.30
2022-10-28T12:50:08.040Z,9.90
2022-10-28T12:53:06.212Z,9.90
2022-10-28T12:55:42.836Z,9.40
2022-10-28T12:58:29.572Z,9.70
2022-10-28T13:01:08.417Z,10.20
2022-10-28T13:03:36.393Z,9.80
2022-10-28T13:06:43.812Z,9.70
2022-10-28T13:09:39.127Z,9.40
2022-10-28T13:12:16.243Z,9.20
2022-10-28T13:14:55.839Z,10.10
2022-10-28T13:17:46.449Z,8.40
2022-10-28T13:20:52.525Z,10.10
2022-10-28T13:23:29.746Z,8.40
2022-10-28T13:26:16.721Z,8.70
2022-10-28T13:28:49.401Z,7.70
2022-10-28T13:31:17.446Z,8.80
2022-10-28T13:33:52.699Z,8.70
2022-10-28T13:36:29.403Z,10.70
2022-10-28T13:39:00.012Z,11.60
2022-10-28T13:41:40.981Z,8.90
2022-10-28T13:44:23.181Z,9.50
2022-10-28T13:46:57.197Z,11.00
2022-10-28T13:49:35.098Z,9.30
2022-10-28T13:52:19.589Z,9.70
2022-10-28T13:54:48.184Z,7.90
2022-10-28T13:57:28.890Z,10.30
2022-10-28T14:00:22.230Z,8.20
2022-10-28T14:02:58.397Z,9.80
2022-10-28T14:05:46.687Z,8.00
2022-10-28T14:08:20.703Z,8.80
2022-10-28T14:11:13.957Z,8.00
2022-10-28T14:13:56.907Z,11.80
2022-10-28T14:16:31.301Z,8.70
2022-10-28T14:19:16.514Z,8.60
2022-10-28T14:21:50.124Z,8.30
2022-10-28T14:24:42.934Z,8.00
2022-10-28T14:27:15.221Z,7.90
2022-10-28T14:29:44.002Z,8.80
2022-10-28T14:32:55.397Z,8.70
2022-10-28T14:35:51.151Z,8.20
2022-10-28T14:38:38.757Z,8.50
2022-10-28T14:41:18.450Z,8.10
2022-10-28T14:43:58.271Z,7.60
2022-10-28T14:46:36.138Z,8.00
2022-10-28T14:49:04.244Z,9.50
2022-10-28T14:51:41.856Z,9.50
2022-10-28T14:54:15.461Z,8.40
2022-10-28T14:56:43.327Z,10.60
2022-10-28T14:59:24.075Z,9.30
2022-10-28T15:02:02.492Z,11.50
2022-10-28T15:04:30.388Z,9.00
2022-10-28T15:06:58.689Z,9.80
2022-10-28T15:09:31.057Z,10.20
2022-10-28T15:12:08.382Z,8.90
2022-10-28T15:14:41.039Z,9.30
2022-10-28T15:17:20.524Z,8.40
2022-10-28T15:19:51.612Z,9.60
2022-10-28T15:22:30.692Z,8.60
2022-10-28T15:25:25.676Z,7.90
2022-10-28T15:27:54.105Z,8.70
2022-10-28T15:30:24.019Z,7.80
2022-10-28T15:32:53.965Z,8.70
2022-10-28T15:35:27.777Z,8.20
2022-10-28T15:37:59.208Z,8.80
2022-10-28T15:40:32.389Z,10.10
2022-10-28T15:43:02.685Z,9.30
2022-10-28T15:45:32.433Z,9.00
2022-10-28T15:48:03.630Z,8.20
2022-10-28T15:50:33.371Z,9.30
2022-10-28T15:53:09.770Z,10.40
2022-10-28T15:56:06.954Z,8.50
2022-10-28T15:58:32.731Z,8.70
2022-10-28T16:01:00.397Z,9.50
2022-10-28T16:03:41.594Z,8.80
2022-10-28T16:06:29.377Z,9.90
2022-10-28T16:09:15.715Z,9.20
2022-10-28T16:11:47.674Z,9.80
2022-10-28T16:14:35.566Z,10.50
2022-10-28T16:17:16.071Z,10.80
2022-10-28T16:19:46.608Z,10.50
2022-10-28T16:22:14.312Z,11.70
2022-10-28T16:24:42.383Z,10.50
2022-10-28T16:27:22.300Z,11.50
2022-10-28T16:29:50.433Z,11.20
2022-10-28T16:32:22.907Z,11.50
2022-10-28T16:34:50.467Z,10.90
2022-10-28T16:37:27.403Z,12.60
2022-10-28T16:39:55.436Z,11.40
2022-10-28T16:42:23.648Z,12.00
2022-10-28T16:44:51.336Z,11.60
2022-10-28T16:47:20.730Z,13.20
2022-10-28T16:49:54.423Z,11.70
2022-10-28T16:52:28.827Z,11.70
2022-10-28T16:54:57.328Z,12.50
2022-10-28T16:57:25.639Z,13.10
2022-10-28T16:59:54.023Z,12.90
2022-10-28T17:02:30.818Z,11.50
2022-10-28T17:04:59.411Z,11.90
2022-10-28T17:07:27.824Z,16.60
2022-10-28T17:09:56.962Z,13.70
2022-10-28T17:12:26.634Z,14.50
2022-10-28T17:14:54.524Z,14.80
2022-10-28T17:17:22.098Z,14.60
2022-10-28T17:19:49.652Z,14.60
2022-10-28T17:22:17.408Z,14.40
2022-10-28T17:24:44.996Z,14.40
2022-10-28T17:27:13.271Z,14.40
2022-10-28T17:29:40.898Z,13.20
2022-10-28T17:32:08.642Z,13.10
2022-10-28T17:34:36.688Z,13.00
2022-10-28T17:37:04.642Z,14.30
2022-10-28T17:39:32.162Z,14.30
2022-10-28T17:42:00.180Z,14.00
2022-10-28T17:44:27.774Z,13.20
2022-10-28T17:46:55.323Z,13.20
2022-10-28T17:49:22.906Z,13.70
2022-10-28T17:51:51.437Z,13.70
2022-10-28T17:54:19.224Z,13.30
2022-10-28T17:56:47.836Z,13.70
2022-10-28T17:59:15.434Z,13.50
2022-10-28T18:01:43.057Z,13.50
2022-10-28T18:04:12.090Z,13.70
2022-10-28T18:06:39.707Z,13.90
2022-10-28T18:09:11.848Z,14.60
2022-10-28T18:11:39.952Z,14.70
2022-10-28T18:14:07.523Z,14.80
2022-10-28T18:16:37.091Z,15.20
2022-10-28T18:19:06.383Z,15.10
2022-10-28T18:21:34.485Z,15.40
2022-10-28T18:24:04.975Z,15.60
2022-10-28T18:26:35.056Z,15.30
2022-10-28T18:29:08.054Z,15.10
2022-10-28T18:31:37.569Z,14.40
2022-10-28T18:34:05.185Z,14.40
2022-10-28T18:36:35.505Z,14.70
2022-10-28T18:39:06.713Z,14.40
2022-10-28T18:41:42.188Z,15.00
2022-10-28T18:44:13.073Z,13.10
2022-10-28T18:46:40.950Z,13.90
2022-10-28T18:49:08.690Z,13.00
2022-10-28T18:51:36.832Z,13.30
2022-10-28T18:54:05.047Z,13.60
2022-10-28T18:56:35.403Z,14.20
2022-10-28T18:59:04.552Z,13.70
2022-10-28T19:01:33.506Z,12.40
2022-10-28T19:04:02.918Z,13.30
2022-10-28T19:06:32.712Z,13.70
2022-10-28T19:09:04.620Z,13.40
2022-10-28T19:11:33.985Z,13.70
2022-10-28T19:14:04.399Z,13.20
2022-10-28T19:16:35.439Z,13.70
2022-10-28T19:19:04.591Z,12.50
2022-10-28T19:21:32.944Z,13.30
2022-10-28T19:24:00.837Z,13.50
2022-10-28T19:26:31.994Z,13.80
2022-10-28T19:28:59.654Z,13.40
2022-10-28T19:31:27.851Z,13.20
2022-10-28T19:33:55.540Z,14.50
2022-10-28T19:36:26.244Z,13.60
2022-10-28T19:38:56.082Z,13.10
2022-10-28T19:41:29.781Z,13.20
2022-10-28T19:44:01.687Z,13.50
2022-10-28T19:46:35.504Z,13.80
2022-10-28T19:49:05.229Z,13.10
2022-10-28T19:51:39.072Z,13.20
2022-10-28T19:54:12.113Z,12.20
2022-10-28T19:56:40.363Z,12.50
2022-10-28T19:59:08.008Z,12.70
2022-10-28T20:01:38.091Z,12.10
2022-10-28T20:04:06.838Z,13.00
2022-10-28T20:06:37.273Z,13.20
2022-10-28T20:09:05.487Z,13.20
2022-10-28T20:11:35.476Z,13.70
2022-10-28T20:14:12.365Z,13.40
2022-10-28T20:16:43.620Z,11.70
2022-10-28T20:19:12.192Z,13.10
2022-10-28T20:21:39.795Z,13.20
2022-10-28T20:24:08.057Z,13.40
2022-10-28T20:26:37.975Z,14.20
2022-10-28T20:29:10.325Z,12.00
2022-10-28T20:31:39.059Z,13.00
2022-10-28T20:34:07.801Z,12.70
2022-10-28T20:36:38.633Z,13.20
2022-10-28T20:39:15.941Z,13.70
2022-10-28T20:41:46.029Z,13.30
2022-10-28T20:44:14.560Z,13.90
2022-10-28T20:46:42.395Z,13.50
2022-10-28T20:49:10.528Z,13.60
2022-10-28T20:51:38.072Z,13.40
2022-10-28T20:54:06.054Z,14.00
2022-10-28T20:56:37.215Z,13.70
2022-10-28T20:59:05.409Z,12.80
2022-10-28T21:01:35.836Z,13.00
2022-10-28T21:04:06.376Z,13.70
2022-10-28T21:06:34.537Z,12.90
2022-10-28T21:09:02.141Z,12.90
2022-10-28T21:11:29.794Z,12.00
2022-10-28T21:13:59.673Z,13.20
2022-10-28T21:16:28.410Z,12.50
2022-10-28T21:18:56.555Z,14.60
2022-10-28T21:21:24.938Z,13.70
2022-10-28T21:23:55.724Z,13.00
2022-10-28T21:26:23.311Z,13.20
2022-10-28T21:28:52.270Z,12.80
2022-10-28T21:31:21.239Z,12.70
2022-10-28T21:36:19.946Z,13.80
2022-10-28T21:38:47.948Z,16.80
2022-10-28T21:41:17.842Z,13.10
2022-10-28T21:43:50.387Z,13.00
2022-10-28T21:46:19.125Z,12.80
2022-10-28T21:48:47.066Z,13.30
2022-10-28T21:51:16.330Z,12.70
2022-10-28T21:53:44.746Z,13.10
2022-10-28T21:56:18.845Z,13.80
2022-10-28T21:58:48.961Z,14.40
2022-10-28T22:01:19.827Z,14.00
2022-10-28T22:03:47.555Z,14.30
2022-10-28T22:06:15.246Z,13.70
2022-10-28T22:08:42.892Z,13.60
2022-10-28T22:11:19.115Z,13.40
2022-10-28T22:14:01.594Z,13.90
2022-10-28T22:16:30.706Z,13.40
2022-10-28T22:18:59.913Z,13.40
2022-10-28T22:21:30.450Z,13.10
2022-10-28T22:23:57.984Z,13.70
2022-10-28T22:26:28.594Z,14.10
2022-10-28T22:28:57.033Z,13.30
2022-10-28T22:31:27.161Z,13.00
2022-10-28T22:33:55.350Z,13.50
2022-10-28T22:36:25.575Z,13.20
2022-10-28T22:38:53.380Z,12.50
2022-10-28T22:41:29.061Z,13.60
2022-10-28T22:43:58.641Z,12.50
2022-10-28T22:46:30.038Z,12.30
2022-10-28T22:48:57.797Z,13.80
2022-10-28T22:51:25.514Z,13.00
2022-10-28T22:53:53.322Z,12.50
2022-10-28T22:56:24.287Z,12.80
2022-10-28T22:58:54.609Z,13.50
2022-10-28T23:01:23.222Z,13.50
2022-10-28T23:03:52.942Z,13.00
2022-10-28T23:06:23.352Z,12.60
2022-10-28T23:08:51.001Z,12.90
2022-10-28T23:11:19.983Z,13.60
2022-10-28T23:13:52.736Z,13.50
2022-10-28T23:16:21.248Z,14.40
2022-10-28T23:18:48.872Z,12.70
2022-10-28T23:21:21.378Z,14.10
2022-10-28T23:23:54.087Z,13.50
2022-10-28T23:26:23.049Z,13.30
2022-10-28T23:28:52.811Z,13.00
2022-10-28T23:31:20.978Z,12.60
2022-10-28T23:33:49.280Z,13.50
2022-10-28T23:36:16.847Z,13.40
2022-10-28T23:38:44.686Z,12.40
2022-10-28T23:41:16.016Z,12.20
2022-10-28T23:43:44.403Z,12.40
2022-10-28T23:46:12.285Z,13.30
2022-10-28T23:48:39.924Z,12.60
2022-10-28T23:51:07.697Z,12.80
2022-10-28T23:53:35.408Z,12.00
2022-10-28T23:56:03.034Z,13.40
2022-10-28T23:58:30.612Z,12.80
